Time;durP1;ratioP1;P1;durP2;ratioP2;P2;SDS_P1;SDS_P2;PMS_P1;PMS_P2;Temp;Humidity;BMP_temperature;BMP_pressure;BME280_temperature;BME280_humidity;BME280_pressure;Samples;Min_cycle;Max_cycle;Signal;HPM_P1;HPM_P2
2023/04/29 00:01:30;;;;;;;51.28;26.95;;;;;;;-144.85;100.00;61331.59;5047866;28;31114;-80
2023/04/29 00:03:57;;;;;;;51.58;27.73;;;;;;;-144.85;100.00;61331.59;5036826;28;30700;-80
2023/04/29 00:06:25;;;;;;;52.03;29.20;;;;;;;-144.85;100.00;61331.59;5034884;28;30508;-82
2023/04/29 00:08:52;;;;;;;55.92;29.63;;;;;;;-144.85;100.00;61331.59;5037938;28;32581;-79
2023/04/29 00:11:19;;;;;;;53.63;28.58;;;;;;;-144.85;100.00;61331.59;5038395;28;32414;-79
2023/04/29 00:13:46;;;;;;;53.40;29.95;;;;;;;-144.85;100.00;61331.59;5039155;28;31972;-79
2023/04/29 00:16:13;;;;;;;55.92;29.70;;;;;;;-144.85;100.00;61331.59;5037896;28;30555;-80
2023/04/29 00:18:40;;;;;;;53.65;29.25;;;;;;;-144.85;100.00;61331.59;5040530;28;32755;-79
2023/04/29 00:21:08;;;;;;;60.63;29.83;;;;;;;-144.85;100.00;61331.59;5054054;28;32633;-80
2023/04/29 00:23:35;;;;;;;57.25;31.80;;;;;;;-144.85;100.00;61331.59;5053013;28;30906;-79
2023/04/29 00:26:02;;;;;;;58.55;31.52;;;;;;;-144.85;100.00;61331.59;5043810;28;31854;-79
2023/04/29 00:28:29;;;;;;;58.00;33.35;;;;;;;-144.85;100.00;61331.59;5044282;28;32327;-80
2023/04/29 00:30:56;;;;;;;58.17;33.03;;;;;;;-144.85;100.00;61331.59;5036744;28;32151;-79
2023/04/29 00:33:24;;;;;;;57.45;33.38;;;;;;;-144.85;100.00;61331.59;5035049;28;32005;-81
2023/04/29 00:35:51;;;;;;;58.22;33.28;;;;;;;-144.85;100.00;61331.59;5037381;28;31544;-79
2023/04/29 00:38:20;;;;;;;56.92;33.03;;;;;;;-144.85;100.00;61331.59;5038375;28;32141;-80
2023/04/29 00:40:47;;;;;;;54.97;32.50;;;;;;;-144.85;100.00;61331.59;5038179;28;32768;-79
2023/04/29 00:43:14;;;;;;;54.20;33.05;;;;;;;-144.85;100.00;61331.59;5054754;28;31288;-79
2023/04/29 00:45:42;;;;;;;54.47;31.92;;;;;;;-144.85;100.00;61331.59;5054161;28;30954;-78
2023/04/29 00:48:09;;;;;;;52.95;31.05;;;;;;;-144.85;100.00;61331.59;5038603;28;31528;-78
2023/04/29 00:50:36;;;;;;;49.40;31.20;;;;;;;-144.85;100.00;61331.59;5054095;28;32508;-78
2023/04/29 00:53:04;;;;;;;49.47;28.17;;;;;;;-144.85;100.00;61331.59;5032357;28;31038;-79
2023/04/29 00:55:32;;;;;;;49.00;29.48;;;;;;;-144.85;100.00;61331.59;5039187;28;33488;-80
2023/04/29 00:58:01;;;;;;;48.88;29.42;;;;;;;-144.85;100.00;61331.59;5037940;28;30237;-81
2023/04/29 01:00:29;;;;;;;48.53;29.02;;;;;;;-144.85;100.00;61331.59;5038590;28;32819;-81
2023/04/29 01:02:58;;;;;;;43.58;26.73;;;;;;;-144.85;100.00;61331.59;5055449;28;31748;-79
2023/04/29 01:05:26;;;;;;;45.08;27.23;;;;;;;-144.85;100.00;61331.59;5040572;28;32941;-78
2023/04/29 01:08:09;;;;;;;41.55;25.73;;;;;;;-144.85;100.00;61331.59;5048205;28;32321;-79
2023/04/29 01:10:59;;;;;;;43.10;26.42;;;;;;;-144.85;100.00;61331.59;5037321;28;31447;-79
2023/04/29 01:13:43;;;;;;;41.47;25.17;;;;;;;-144.85;100.00;61331.59;5035447;28;31955;-79
2023/04/29 01:16:24;;;;;;;41.78;25.10;;;;;;;-144.85;100.00;61331.59;5054319;28;30675;-82
2023/04/29 01:18:56;;;;;;;41.65;23.83;;;;;;;-144.85;100.00;61331.59;5030929;28;32872;-79
2023/04/29 01:21:30;;;;;;;40.10;24.17;;;;;;;-144.85;100.00;61331.59;5038218;28;31645;-81
2023/04/29 01:23:57;;;;;;;38.63;24.30;;;;;;;-144.85;100.00;61331.59;5021505;28;31180;-79
2023/04/29 01:26:31;;;;;;;41.03;25.23;;;;;;;-144.85;100.00;61331.59;5033391;28;30710;-81
2023/04/29 01:29:48;;;;;;;45.35;24.77;;;;;;;-144.85;100.00;61331.59;5039813;28;31114;-80
2023/04/29 01:32:24;;;;;;;40.10;23.98;;;;;;;-144.85;100.00;61331.59;5014327;28;31765;-79
2023/04/29 01:35:03;;;;;;;41.67;24.23;;;;;;;-144.85;100.00;61331.59;5037512;28;30871;-80
2023/04/29 01:37:48;;;;;;;38.50;24.20;;;;;;;-144.85;100.00;61331.59;5037451;28;30602;-80
2023/04/29 01:40:26;;;;;;;40.28;24.45;;;;;;;-144.85;100.00;61331.59;5050919;28;32273;-79
2023/04/29 01:43:08;;;;;;;41.28;24.00;;;;;;;-144.85;100.00;61331.59;5037225;28;32420;-80
2023/04/29 01:45:40;;;;;;;40.17;23.50;;;;;;;-144.85;100.00;61331.59;5018794;28;32353;-80
2023/04/29 01:48:08;;;;;;;42.78;24.02;;;;;;;-144.85;100.00;61331.59;5037892;28;31011;-79
2023/04/29 01:50:35;;;;;;;42.10;24.25;;;;;;;-144.85;100.00;61331.59;5051105;28;30349;-79
2023/04/29 01:53:10;;;;;;;43.03;23.80;;;;;;;-144.85;100.00;61331.59;5036959;28;31656;-79
2023/04/29 01:55:37;;;;;;;45.05;24.73;;;;;;;-144.85;100.00;61331.59;5053916;28;32053;-81
2023/04/29 01:58:33;;;;;;;;;;;;;;;-144.85;100.00;61331.59;5031640;28;31893;-79
2023/04/29 02:01:30;;;;;;;39.67;22.73;;;;;;;-144.85;100.00;61331.59;5049497;28;32531;-80
2023/04/29 02:03:58;;;;;;;45.90;24.05;;;;;;;-144.85;100.00;61331.59;5037924;28;31537;-79
2023/04/29 02:06:25;;;;;;;46.75;23.83;;;;;;;-144.85;100.00;61331.59;5051751;28;31658;-81
2023/04/29 02:08:59;;;;;;;43.30;25.23;;;;;;;-144.85;100.00;61331.59;5036992;28;30781;-80
2023/04/29 02:11:26;;;;;;;46.22;24.10;;;;;;;-144.85;100.00;61331.59;5040718;28;31750;-79
2023/04/29 02:13:56;;;;;;;45.70;24.98;;;;;;;-144.85;100.00;61331.59;5053195;28;33360;-80
2023/04/29 02:16:23;;;;;;;42.78;23.92;;;;;;;-144.85;100.00;61331.59;5055929;28;31813;-80
2023/04/29 02:19:00;;;;;;;39.65;22.92;;;;;;;-144.85;100.00;61331.59;5055031;28;30845;-81
2023/04/29 02:21:27;;;;;;;40.60;23.75;;;;;;;-144.85;100.00;61331.59;5047439;28;30715;-79
2023/04/29 02:23:55;;;;;;;42.08;22.45;;;;;;;-144.85;100.00;61331.59;5055157;28;33161;-80
2023/04/29 02:26:23;;;;;;;40.90;22.60;;;;;;;-144.85;100.00;61331.59;5067705;28;31594;-79
2023/04/29 02:28:51;;;;;;;41.45;22.70;;;;;;;-144.85;100.00;61331.59;5053837;28;31371;-79
2023/04/29 02:31:20;;;;;;;41.70;22.52;;;;;;;-144.85;100.00;61331.59;5055792;28;32484;-80
2023/04/29 02:33:48;;;;;;;40.97;22.90;;;;;;;-144.85;100.00;61331.59;5065564;28;32729;-80
2023/04/29 02:36:16;;;;;;;37.70;21.65;;;;;;;-144.85;100.00;61331.59;5053323;28;31241;-80
2023/04/29 02:38:43;;;;;;;42.40;21.65;;;;;;;-144.85;100.00;61331.59;5064505;28;32347;-81
2023/04/29 02:41:17;;;;;;;40.03;20.60;;;;;;;-144.85;100.00;61331.59;5053777;28;31382;-80
2023/04/29 02:43:47;;;;;;;37.55;20.17;;;;;;;-144.85;100.00;61331.59;5070981;28;32248;-81
2023/04/29 02:46:17;;;;;;;39.50;20.67;;;;;;;-144.85;100.00;61331.59;5071165;28;32174;-80
2023/04/29 02:48:44;;;;;;;41.78;21.35;;;;;;;-144.85;100.00;61331.59;5070850;28;30401;-81
2023/04/29 02:51:13;;;;;;;40.50;20.73;;;;;;;-144.85;100.00;61331.59;5072832;28;31437;-79
2023/04/29 02:53:40;;;;;;;39.35;19.70;;;;;;;-144.85;100.00;61331.59;5055513;28;32665;-80
2023/04/29 02:56:07;;;;;;;40.55;20.80;;;;;;;-144.85;100.00;61331.59;5048897;28;31051;-80
2023/04/29 02:58:34;;;;;;;37.15;19.95;;;;;;;-144.85;100.00;61331.59;5040232;28;30801;-79
2023/04/29 03:01:02;;;;;;;36.75;19.30;;;;;;;-144.85;100.00;61331.59;5051718;28;30723;-79
2023/04/29 03:03:30;;;;;;;38.28;19.13;;;;;;;-144.85;100.00;61331.59;5054951;28;32832;-79
2023/04/29 03:05:57;;;;;;;35.13;19.55;;;;;;;-144.85;100.00;61331.59;5034980;28;31159;-79
2023/04/29 03:08:24;;;;;;;39.80;20.52;;;;;;;-144.85;100.00;61331.59;5035246;28;32699;-80
2023/04/29 03:10:51;;;;;;;37.38;19.55;;;;;;;-144.85;100.00;61331.59;5037588;28;32257;-79
2023/04/29 03:13:19;;;;;;;42.35;20.70;;;;;;;-144.85;100.00;61331.59;5055355;28;31294;-80
2023/04/29 03:15:48;;;;;;;42.15;21.40;;;;;;;-144.85;100.00;61331.59;5051860;28;31100;-80
2023/04/29 03:18:15;;;;;;;43.58;20.92;;;;;;;-144.85;100.00;61331.59;5062431;28;32147;-79
2023/04/29 03:20:42;;;;;;;40.92;20.55;;;;;;;-144.85;100.00;61331.59;5065806;28;32039;-79
2023/04/29 03:23:10;;;;;;;37.90;18.90;;;;;;;-144.85;100.00;61331.59;5051357;28;32681;-79
2023/04/29 03:25:37;;;;;;;38.70;19.88;;;;;;;-144.85;100.00;61331.59;5039276;28;31430;-78
2023/04/29 03:28:04;;;;;;;38.65;19.77;;;;;;;-144.85;100.00;61331.59;5065870;28;30498;-80
2023/04/29 03:30:32;;;;;;;40.53;19.73;;;;;;;-144.85;100.00;61331.59;5062425;28;31465;-80
2023/04/29 03:32:59;;;;;;;37.03;19.70;;;;;;;-144.85;100.00;61331.59;5071051;28;31358;-79
2023/04/29 03:35:28;;;;;;;40.40;20.42;;;;;;;-144.85;100.00;61331.59;5069830;28;32346;-80
2023/04/29 03:38:18;;;;;;;39.15;19.70;;;;;;;-144.85;100.00;61331.59;5041308;28;32792;-80
2023/04/29 03:40:47;;;;;;;35.67;18.48;;;;;;;-144.85;100.00;61331.59;5069770;28;30409;-81
2023/04/29 03:43:17;;;;;;;36.58;20.13;;;;;;;-144.85;100.00;61331.59;5055871;28;31669;-79
2023/04/29 03:45:44;;;;;;;38.10;19.58;;;;;;;-144.85;100.00;61331.59;5076619;28;31316;-80
2023/04/29 03:48:14;;;;;;;41.83;19.55;;;;;;;-144.85;100.00;61331.59;5053648;28;31815;-80
2023/04/29 03:50:41;;;;;;;41.90;19.08;;;;;;;-144.85;100.00;61331.59;5048432;28;31551;-79
2023/04/29 03:53:09;;;;;;;41.05;19.83;;;;;;;-144.85;100.00;61331.59;5066121;28;31299;-80
2023/04/29 03:55:36;;;;;;;36.47;20.25;;;;;;;-144.85;100.00;61331.59;5060872;28;31249;-81
2023/04/29 03:58:03;;;;;;;41.25;20.63;;;;;;;-144.85;100.00;61331.59;5042293;28;32264;-82
2023/04/29 04:00:31;;;;;;;40.15;20.67;;;;;;;-144.85;100.00;61331.59;5041787;28;30880;-80
2023/04/29 04:03:04;;;;;;;40.58;20.05;;;;;;;-144.85;100.00;61331.59;5057193;28;32578;-80
2023/04/29 04:05:34;;;;;;;38.63;19.25;;;;;;;-144.85;100.00;61331.59;5040442;28;30871;-79
2023/04/29 04:08:07;;;;;;;36.20;19.33;;;;;;;-144.85;100.00;61331.59;5041126;28;30582;-80
2023/04/29 04:10:46;;;;;;;41.92;19.10;;;;;;;-144.85;100.00;61331.59;5040574;28;31892;-80
2023/04/29 04:13:35;;;;;;;39.75;17.55;;;;;;;-144.85;100.00;61331.59;5045095;28;32659;-81
2023/04/29 04:16:04;;;;;;;45.10;20.13;;;;;;;-144.85;100.00;61331.59;5054827;28;31466;-79
2023/04/29 04:18:31;;;;;;;38.10;20.55;;;;;;;-144.85;100.00;61331.59;5056039;28;30868;-80
2023/04/29 04:21:10;;;;;;;38.45;20.02;;;;;;;-144.85;100.00;61331.59;5039512;28;32252;-80
2023/04/29 04:23:40;;;;;;;38.70;20.73;;;;;;;-144.85;100.00;61331.59;5043549;28;31458;-81
2023/04/29 04:26:09;;;;;;;40.45;20.60;;;;;;;-144.85;100.00;61331.59;5055768;28;32652;-80
2023/04/29 04:28:55;;;;;;;37.08;20.45;;;;;;;-144.85;100.00;61331.59;5043279;28;32778;-79
2023/04/29 04:31:35;;;;;;;35.30;20.13;;;;;;;-144.85;100.00;61331.59;5024285;28;31648;-80
2023/04/29 04:34:02;;;;;;;38.63;19.40;;;;;;;-144.85;100.00;61331.59;5039152;28;31522;-79
2023/04/29 04:36:32;;;;;;;37.08;19.73;;;;;;;-144.85;100.00;61331.59;5055238;28;31616;-79
2023/04/29 04:38:59;;;;;;;40.15;20.15;;;;;;;-144.85;100.00;61331.59;5054596;28;31050;-81
2023/04/29 04:41:30;;;;;;;41.10;19.30;;;;;;;-144.85;100.00;61331.59;5020087;28;30867;-79
2023/04/29 04:43:58;;;;;;;43.33;19.63;;;;;;;-144.85;100.00;61331.59;5055217;28;31383;-80
2023/04/29 04:46:35;;;;;;;34.50;19.25;;;;;;;-144.85;100.00;61331.59;5037929;28;31172;-78
2023/04/29 04:49:11;;;;;;;37.65;19.63;;;;;;;-144.85;100.00;61331.59;5049417;28;31136;-80
2023/04/29 04:51:47;;;;;;;34.75;19.00;;;;;;;-144.85;100.00;61331.59;5035573;28;30469;-79
2023/04/29 04:54:14;;;;;;;32.90;18.55;;;;;;;-144.85;100.00;61331.59;5036629;28;32845;-80
2023/04/29 04:56:42;;;;;;;33.42;18.63;;;;;;;-144.85;100.00;61331.59;5037149;28;31226;-79
2023/04/29 04:59:09;;;;;;;36.60;19.27;;;;;;;-144.85;100.00;61331.59;5038157;28;31117;-80
2023/04/29 05:01:37;;;;;;;33.70;18.70;;;;;;;-144.85;100.00;61331.59;5053547;28;30634;-80
2023/04/29 05:04:05;;;;;;;36.17;19.45;;;;;;;-144.85;100.00;61331.59;5037664;28;31472;-79
2023/04/29 05:06:32;;;;;;;35.00;18.63;;;;;;;-144.85;100.00;61331.59;5047367;28;33782;-79
2023/04/29 05:09:00;;;;;;;33.10;18.05;;;;;;;-144.85;100.00;61331.59;5054272;28;31921;-80
2023/04/29 05:11:27;;;;;;;33.97;17.80;;;;;;;-144.85;100.00;61331.59;5039598;28;32542;-79
2023/04/29 05:14:05;;;;;;;31.13;17.73;;;;;;;-144.85;100.00;61331.59;5052740;28;32035;-80
2023/04/29 05:16:32;;;;;;;32.00;17.30;;;;;;;-144.85;100.00;61331.59;5039488;28;31832;-80
2023/04/29 05:19:00;;;;;;;30.88;17.40;;;;;;;-144.85;100.00;61331.59;5057377;28;30789;-81
2023/04/29 05:21:31;;;;;;;32.15;17.38;;;;;;;-144.85;100.00;61331.59;5032515;28;30501;-80
2023/04/29 05:23:59;;;;;;;30.55;17.83;;;;;;;-144.85;100.00;61331.59;5054354;28;31661;-80
2023/04/29 05:26:26;;;;;;;32.00;17.80;;;;;;;-144.85;100.00;61331.59;5053044;28;32692;-79
2023/04/29 05:28:58;;;;;;;30.25;18.17;;;;;;;-144.85;100.00;61331.59;5057907;28;31322;-81
2023/04/29 05:31:27;;;;;;;31.15;17.27;;;;;;;-144.85;100.00;61331.59;5055725;28;32212;-79
2023/04/29 05:33:55;;;;;;;32.78;17.20;;;;;;;-144.85;100.00;61331.59;5041125;28;31747;-79
2023/04/29 05:36:24;;;;;;;30.17;17.17;;;;;;;-144.85;100.00;61331.59;5055995;28;32971;-78
2023/04/29 05:38:51;;;;;;;28.02;17.35;;;;;;;-144.85;100.00;61331.59;5045518;28;31068;-79
2023/04/29 05:41:19;;;;;;;30.30;16.75;;;;;;;-144.85;100.00;61331.59;5053653;28;30536;-80
2023/04/29 05:44:09;;;;;;;32.55;17.38;;;;;;;-144.85;100.00;61331.59;5050149;28;32952;-80
2023/04/29 05:46:36;;;;;;;32.65;17.13;;;;;;;-144.85;100.00;61331.59;5038056;28;32107;-79
2023/04/29 05:49:03;;;;;;;27.50;16.35;;;;;;;-144.85;100.00;61331.59;5053246;28;31907;-80
2023/04/29 05:51:31;;;;;;;28.40;16.77;;;;;;;-144.85;100.00;61331.59;5036776;28;30280;-80
2023/04/29 05:53:59;;;;;;;32.20;16.95;;;;;;;-144.85;100.00;61331.59;5053808;28;31331;-79
2023/04/29 05:56:27;;;;;;;28.67;16.30;;;;;;;-144.85;100.00;61331.59;5052781;28;33525;-79
2023/04/29 05:58:55;;;;;;;30.35;16.55;;;;;;;-144.85;100.00;61331.59;5036949;28;30845;-79
2023/04/29 06:01:22;;;;;;;28.85;15.40;;;;;;;-144.85;100.00;61331.59;5036587;28;30777;-79
2023/04/29 06:03:49;;;;;;;31.90;16.67;;;;;;;-144.85;100.00;61331.59;5054575;28;31239;-79
2023/04/29 06:06:40;;;;;;;28.48;16.40;;;;;;;-144.85;100.00;61331.59;5035200;28;33464;-80
2023/04/29 06:09:20;;;;;;;30.85;16.58;;;;;;;-144.85;100.00;61331.59;5052280;28;30769;-80
2023/04/29 06:11:56;;;;;;;29.35;16.80;;;;;;;-144.85;100.00;61331.59;5035209;28;30613;-79
2023/04/29 06:14:24;;;;;;;27.25;16.17;;;;;;;-144.85;100.00;61331.59;5042830;28;31368;-78
2023/04/29 06:16:52;;;;;;;25.13;15.82;;;;;;;-144.85;100.00;61331.59;5052278;28;31922;-79
2023/04/29 06:19:19;;;;;;;27.30;15.07;;;;;;;-144.85;100.00;61331.59;5039126;28;31750;-81
2023/04/29 06:21:47;;;;;;;27.38;16.27;;;;;;;-144.85;100.00;61331.59;5036879;28;31610;-80
2023/04/29 06:24:14;;;;;;;24.13;15.40;;;;;;;-144.85;100.00;61331.59;5036757;28;31339;-81
2023/04/29 06:26:42;;;;;;;26.38;15.38;;;;;;;-144.85;100.00;61331.59;5037872;28;32788;-81
2023/04/29 06:29:09;;;;;;;27.08;15.07;;;;;;;-144.85;100.00;61331.59;5050256;28;31148;-80
2023/04/29 06:31:37;;;;;;;25.02;15.63;;;;;;;-144.85;100.00;61331.59;5035703;28;30646;-81
2023/04/29 06:34:04;;;;;;;26.15;14.98;;;;;;;-144.85;100.00;61331.59;5026159;28;31372;-81
2023/04/29 06:36:35;;;;;;;26.65;16.38;;;;;;;-144.85;100.00;61331.59;5051602;28;33201;-81
2023/04/29 06:39:16;;;;;;;23.73;14.65;;;;;;;-144.85;100.00;61331.59;5020260;28;30815;-79
2023/04/29 06:41:53;;;;;;;25.38;14.88;;;;;;;-144.85;100.00;61331.59;5052179;28;31917;-80
2023/04/29 06:44:45;;;;;;;28.42;15.32;;;;;;;-144.85;100.00;61331.59;5042836;28;31436;-86
2023/04/29 06:47:24;;;;;;;24.58;15.05;;;;;;;-144.85;100.00;61331.59;5055977;28;32295;-82
2023/04/29 06:50:04;;;;;;;25.27;14.82;;;;;;;-144.85;100.00;61331.59;5056269;28;31744;-81
2023/04/29 06:52:34;;;;;;;25.70;15.18;;;;;;;-144.85;100.00;61331.59;5074202;28;30476;-82
2023/04/29 06:55:04;;;;;;;22.08;14.40;;;;;;;-144.85;100.00;61331.59;5054194;28;32903;-82
2023/04/29 06:57:40;;;;;;;24.83;15.38;;;;;;;-144.85;100.00;61331.59;5037907;28;31386;-81
2023/04/29 07:00:15;;;;;;;26.17;15.93;;;;;;;-144.85;100.00;61331.59;5065763;28;31095;-81
2023/04/29 07:02:42;;;;;;;25.77;15.68;;;;;;;-144.85;100.00;61331.59;5052940;28;30909;-81
2023/04/29 07:05:10;;;;;;;27.10;15.23;;;;;;;-144.85;100.00;61331.59;5052155;28;32972;-81
2023/04/29 07:07:37;;;;;;;24.15;15.68;;;;;;;-144.85;100.00;61331.59;5053747;28;32982;-80
2023/04/29 07:10:04;;;;;;;25.00;15.30;;;;;;;-144.85;100.00;61331.59;5051705;28;32147;-81
2023/04/29 07:12:33;;;;;;;23.52;15.32;;;;;;;-144.85;100.00;61331.59;5032750;28;30724;-81
2023/04/29 07:15:00;;;;;;;24.83;15.73;;;;;;;-144.85;100.00;61331.59;5035282;28;31610;-80
2023/04/29 07:17:30;;;;;;;24.42;14.88;;;;;;;-144.85;100.00;61331.59;5035208;28;31333;-80
2023/04/29 07:19:57;;;;;;;25.67;16.08;;;;;;;-144.85;100.00;61331.59;5042471;28;31251;-85
2023/04/29 07:22:24;;;;;;;23.83;15.75;;;;;;;-144.85;100.00;61331.59;5034940;28;30375;-81
2023/04/29 07:24:53;;;;;;;23.40;15.38;;;;;;;-144.85;100.00;61331.59;5036448;28;33510;-82
2023/04/29 07:27:22;;;;;;;26.30;15.55;;;;;;;-144.85;100.00;61331.59;5053463;28;32867;-81
2023/04/29 07:29:49;;;;;;;23.10;15.00;;;;;;;-144.85;100.00;61331.59;5034412;28;31706;-82
2023/04/29 07:32:16;;;;;;;25.95;15.80;;;;;;;-144.85;100.00;61331.59;5056213;28;32478;-83
2023/04/29 07:34:43;;;;;;;28.55;16.00;;;;;;;-144.85;100.00;61331.59;5057847;28;31307;-82
2023/04/29 07:37:10;;;;;;;23.42;15.35;;;;;;;-144.85;100.00;61331.59;5056413;28;31239;-81
2023/04/29 07:39:37;;;;;;;24.13;15.02;;;;;;;-144.85;100.00;61331.59;5039316;28;30522;-82
2023/04/29 07:42:05;;;;;;;23.83;15.52;;;;;;;-144.85;100.00;61331.59;5043486;28;31039;-81
2023/04/29 07:44:32;;;;;;;28.30;15.60;;;;;;;-144.85;100.00;61331.59;5053104;28;32714;-83
2023/04/29 07:46:59;;;;;;;25.73;15.45;;;;;;;-144.85;100.00;61331.59;5038235;28;31113;-82
2023/04/29 07:49:27;;;;;;;22.30;15.63;;;;;;;-144.85;100.00;61331.59;5035514;28;30736;-81
2023/04/29 07:51:54;;;;;;;22.98;15.70;;;;;;;-144.85;100.00;61331.59;5034934;28;32239;-82
2023/04/29 07:54:22;;;;;;;23.70;15.10;;;;;;;-144.85;100.00;61331.59;5036673;28;33460;-80
2023/04/29 07:56:50;;;;;;;24.80;15.68;;;;;;;-144.85;100.00;61331.59;5034827;28;32273;-82
2023/04/29 07:59:19;;;;;;;24.95;15.98;;;;;;;-144.85;100.00;61331.59;5052234;28;30820;-80
2023/04/29 08:01:46;;;;;;;28.55;16.13;;;;;;;-144.85;100.00;61331.59;5035558;28;30664;-81
2023/04/29 08:04:13;;;;;;;27.98;16.63;;;;;;;-144.85;100.00;61331.59;5048402;28;31073;-81
2023/04/29 08:06:51;;;;;;;22.98;16.00;;;;;;;-144.85;100.00;61331.59;5038454;28;31302;-83
2023/04/29 08:09:19;;;;;;;23.38;15.20;;;;;;;-144.85;100.00;61331.59;5051402;28;32210;-81
2023/04/29 08:11:46;;;;;;;25.08;15.73;;;;;;;-144.85;100.00;61331.59;5046967;28;30586;-81
2023/04/29 08:14:13;;;;;;;27.65;15.98;;;;;;;-144.85;100.00;61331.59;5052036;28;31425;-80
2023/04/29 08:16:41;;;;;;;24.45;15.70;;;;;;;-144.85;100.00;61331.59;5051223;28;30885;-82
2023/04/29 08:19:08;;;;;;;29.27;15.45;;;;;;;-144.85;100.00;61331.59;5052373;28;31426;-81
2023/04/29 08:21:36;;;;;;;19.83;15.00;;;;;;;-144.85;100.00;61331.59;5035538;28;30280;-82
2023/04/29 08:24:04;;;;;;;27.60;15.75;;;;;;;-144.85;100.00;61331.59;5037118;28;32397;-82
2023/04/29 08:26:31;;;;;;;23.10;15.15;;;;;;;-144.85;100.00;61331.59;5035054;28;31049;-80
2023/04/29 08:28:59;;;;;;;22.17;14.63;;;;;;;-144.85;100.00;61331.59;5038800;28;32006;-80
2023/04/29 08:31:26;;;;;;;21.92;14.18;;;;;;;-144.85;100.00;61331.59;5040091;28;31204;-82
2023/04/29 08:33:53;;;;;;;22.63;14.00;;;;;;;-144.85;100.00;61331.59;5054749;28;32172;-81
2023/04/29 08:36:20;;;;;;;19.70;13.63;;;;;;;-144.85;100.00;61331.59;5052739;28;32011;-80
2023/04/29 08:38:51;;;;;;;18.20;12.95;;;;;;;-144.85;100.00;61331.59;5040614;28;30550;-81
2023/04/29 08:41:18;;;;;;;22.67;13.48;;;;;;;-144.85;100.00;61331.59;5047997;28;31497;-82
2023/04/29 08:43:45;;;;;;;20.42;14.07;;;;;;;-144.85;100.00;61331.59;5055602;28;32513;-83
2023/04/29 08:46:13;;;;;;;20.80;13.35;;;;;;;-144.85;100.00;61331.59;5039539;28;31854;-80
2023/04/29 08:48:42;;;;;;;21.27;13.43;;;;;;;-144.85;100.00;61331.59;5037398;28;31955;-80
2023/04/29 08:51:14;;;;;;;22.08;14.13;;;;;;;-144.85;100.00;61331.59;5035641;28;30806;-82
2023/04/29 08:53:42;;;;;;;18.25;12.70;;;;;;;-144.85;100.00;61331.59;5027165;28;31692;-81
2023/04/29 08:56:19;;;;;;;19.70;12.65;;;;;;;-144.85;100.00;61331.59;5038902;28;31767;-82
2023/04/29 08:58:53;;;;;;;20.83;13.65;;;;;;;-144.85;100.00;61331.59;5039549;28;33004;-82
2023/04/29 09:01:22;;;;;;;23.80;12.73;;;;;;;-144.85;100.00;61331.59;5036493;28;32268;-81
2023/04/29 09:04:03;;;;;;;23.58;13.32;;;;;;;-144.85;100.00;61331.59;5049105;28;32363;-80
2023/04/29 09:06:33;;;;;;;20.95;13.35;;;;;;;-144.85;100.00;61331.59;5037409;28;33260;-79
2023/04/29 09:09:02;;;;;;;17.55;12.35;;;;;;;-144.85;100.00;61331.59;5039885;28;32112;-81
2023/04/29 09:11:30;;;;;;;18.73;12.95;;;;;;;-144.85;100.00;61331.59;5037569;28;30419;-81
2023/04/29 09:14:01;;;;;;;20.33;12.73;;;;;;;-144.85;100.00;61331.59;5050547;28;31505;-81
2023/04/29 09:16:29;;;;;;;20.20;13.13;;;;;;;-144.85;100.00;61331.59;5037090;28;32803;-81
2023/04/29 09:18:56;;;;;;;18.63;12.63;;;;;;;-144.85;100.00;61331.59;5036889;28;32256;-80
2023/04/29 09:21:26;;;;;;;24.98;14.00;;;;;;;-144.85;100.00;61331.59;5035607;28;31412;-81
2023/04/29 09:23:55;;;;;;;21.65;12.63;;;;;;;-144.85;100.00;61331.59;5043215;28;31899;-80
2023/04/29 09:26:23;;;;;;;22.13;13.10;;;;;;;-144.85;100.00;61331.59;5036650;28;31392;-82
2023/04/29 09:29:17;;;;;;;19.67;12.73;;;;;;;-144.85;100.00;61331.59;5054049;28;30717;-81
2023/04/29 09:31:44;;;;;;;22.48;12.73;;;;;;;-144.85;100.00;61331.59;5034943;28;32242;-81
2023/04/29 09:34:13;;;;;;;28.10;12.25;;;;;;;-144.85;100.00;61331.59;5037794;28;31309;-82
2023/04/29 09:36:47;;;;;;;21.02;12.27;;;;;;;-144.85;100.00;61331.59;5046599;28;31195;-82
2023/04/29 09:39:22;;;;;;;18.50;12.30;;;;;;;-144.85;100.00;61331.59;5033160;28;31054;-82
2023/04/29 09:41:52;;;;;;;18.73;12.15;;;;;;;-144.85;100.00;61331.59;5052556;28;30992;-81
2023/04/29 09:44:22;;;;;;;20.27;11.18;;;;;;;-144.85;100.00;61331.59;5049315;28;32237;-81
2023/04/29 09:47:01;;;;;;;17.55;11.48;;;;;;;-144.85;100.00;61331.59;5050904;28;31045;-82
2023/04/29 09:49:34;;;;;;;17.88;11.00;;;;;;;-144.85;100.00;61331.59;5021048;28;30921;-82
2023/04/29 09:52:04;;;;;;;20.85;10.98;;;;;;;-144.85;100.00;61331.59;5038654;28;31708;-82
2023/04/29 09:54:35;;;;;;;15.48;10.93;;;;;;;-144.85;100.00;61331.59;5039362;28;31952;-81
2023/04/29 09:57:05;;;;;;;21.10;11.68;;;;;;;-144.85;100.00;61331.59;5053784;28;32111;-81
2023/04/29 09:59:35;;;;;;;15.40;9.95;;;;;;;-144.85;100.00;61331.59;5038214;28;31532;-82
2023/04/29 10:02:19;;;;;;;14.90;10.35;;;;;;;-144.85;100.00;61331.59;5038439;28;31763;-82
2023/04/29 10:04:52;;;;;;;16.33;9.88;;;;;;;-144.85;100.00;61331.59;5050620;28;32334;-82
2023/04/29 10:07:21;;;;;;;17.52;10.43;;;;;;;-144.85;100.00;61331.59;5039629;28;31386;-82
2023/04/29 10:09:49;;;;;;;13.00;9.70;;;;;;;-144.85;100.00;61331.59;5040376;28;32654;-82
2023/04/29 10:12:19;;;;;;;14.73;9.43;;;;;;;-144.85;100.00;61331.59;5022260;28;32305;-82
2023/04/29 10:15:01;;;;;;;16.70;10.52;;;;;;;-144.85;100.00;61331.59;5040397;28;32150;-85
2023/04/29 10:17:51;;;;;;;15.50;9.95;;;;;;;-144.85;100.00;61331.59;5038080;28;31060;-82
2023/04/29 10:20:25;;;;;;;14.30;10.02;;;;;;;-144.85;100.00;61331.59;5034708;28;31911;-81
2023/04/29 10:22:55;;;;;;;17.02;9.50;;;;;;;-144.85;100.00;61331.59;5035483;28;31353;-82
2023/04/29 10:25:23;;;;;;;14.65;9.25;;;;;;;-144.85;100.00;61331.59;5038506;28;33401;-82
2023/04/29 10:27:53;;;;;;;17.33;9.07;;;;;;;-144.85;100.00;61331.59;5049405;28;34710;-82
2023/04/29 10:30:21;;;;;;;17.60;9.52;;;;;;;-144.85;100.00;61331.59;5034297;28;31764;-81
2023/04/29 10:32:50;;;;;;;14.95;9.15;;;;;;;-144.85;100.00;61331.59;5053065;28;31822;-81
2023/04/29 10:35:22;;;;;;;12.73;8.63;;;;;;;-144.85;100.00;61331.59;5042198;28;32721;-83
2023/04/29 10:37:51;;;;;;;14.63;9.20;;;;;;;-144.85;100.00;61331.59;5048075;28;31406;-82
2023/04/29 10:40:26;;;;;;;13.85;8.68;;;;;;;-144.85;100.00;61331.59;5022015;28;31488;-82
2023/04/29 10:42:54;;;;;;;12.90;8.45;;;;;;;-144.85;100.00;61331.59;5047424;28;30482;-81
2023/04/29 10:45:30;;;;;;;13.77;9.10;;;;;;;-144.85;100.00;61331.59;5038712;28;32928;-82
2023/04/29 10:48:01;;;;;;;13.85;8.88;;;;;;;-144.85;100.00;61331.59;5053331;28;31631;-81
2023/04/29 10:50:30;;;;;;;13.60;9.13;;;;;;;-144.85;100.00;61331.59;5038542;28;31893;-82
2023/04/29 10:53:02;;;;;;;13.60;9.20;;;;;;;-144.85;100.00;61331.59;5043353;28;30401;-82
2023/04/29 10:55:30;;;;;;;13.55;8.70;;;;;;;-144.85;100.00;61331.59;5052904;28;32500;-82
2023/04/29 10:57:57;;;;;;;11.02;8.00;;;;;;;-144.85;100.00;61331.59;5036475;28;32941;-82
2023/04/29 11:00:29;;;;;;;11.70;8.73;;;;;;;-144.85;100.00;61331.59;5038071;28;31699;-82
2023/04/29 11:02:58;;;;;;;13.98;9.40;;;;;;;-144.85;100.00;61331.59;5044398;28;31681;-81
2023/04/29 11:05:29;;;;;;;11.88;8.20;;;;;;;-144.85;100.00;61331.59;5045056;28;32292;-83
2023/04/29 11:08:21;;;;;;;10.43;7.55;;;;;;;-144.85;100.00;61331.59;5036613;28;31909;-82
2023/04/29 11:10:53;;;;;;;13.95;8.15;;;;;;;-144.85;100.00;61331.59;5053816;28;30867;-83